Time;durP1;ratioP1;P1;durP2;ratioP2;P2;SDS_P1;SDS_P2;PMS_P1;PMS_P2;Temp;Humidity;BMP_temperature;BMP_pressure;BME280_temperature;BME280_humidity;BME280_pressure;Samples;Min_cycle;Max_cycle;Signal;HPM_P1;HPM_P2
2020/12/09 00:02:06;;;;;;;;;;;;;;;0.19;100.00;95143.03;5035472;28;20318;-50
2020/12/09 00:04:33;;;;;;;;;;;;;;;0.12;100.00;95144.44;5048983;28;19924;-48
2020/12/09 00:07:00;;;;;;;;;;;;;;;0.04;100.00;95134.66;5026057;28;20829;-49
2020/12/09 00:09:28;;;;;;;;;;;;;;;0.03;100.00;95137.34;5059454;28;19935;-55
2020/12/09 00:11:55;;;;;;;;;;;;;;;-0.01;100.00;95139.31;5040618;28;19978;-51
2020/12/09 00:14:22;;;;;;;;;;;;;;;-0.07;100.00;95139.78;5039016;28;19933;-49
2020/12/09 00:16:50;;;;;;;;;;;;;;;-0.15;100.00;95148.13;5046387;28;19968;-52
2020/12/09 00:19:17;;;;;;;;;;;;;;;-0.25;100.00;95134.19;5018054;28;19932;-54
2020/12/09 00:21:48;;;;;;;;;;;;;;;-0.30;100.00;95126.75;5047805;28;20016;-48
2020/12/09 00:24:16;;;;;;;;;;;;;;;-0.25;100.00;95127.22;5005476;28;20015;-50
2020/12/09 00:26:48;;;;;;;;;;;;;;;-0.27;100.00;95136.91;5065920;28;19925;-48
2020/12/09 00:29:15;;;;;;;;;;;;;;;-0.18;100.00;95143.16;5026465;28;20535;-49
2020/12/09 00:31:41;;;;;;;;;;;;;;;-0.21;100.00;95137.38;5063699;28;19932;-50
2020/12/09 00:34:08;;;;;;;;;;;;;;;-0.18;100.00;95140.56;5029740;28;19936;-53
2020/12/09 00:36:37;;;;;;;;;;;;;;;-0.19;100.00;95125.97;5061399;28;19990;-51
2020/12/09 00:39:06;;;;;;;;;;;;;;;-0.11;100.00;95120.22;5031993;28;20001;-50
2020/12/09 00:41:36;;;;;;;;;;;;;;;-0.04;100.00;95129.19;5058804;28;19932;-51
2020/12/09 00:44:04;;;;;;;;;;;;;;;0.05;100.00;95154.44;5001578;28;19925;-49
2020/12/09 00:46:31;;;;;;;;;;;;;;;0.14;100.00;95169.31;5063233;28;19932;-52
2020/12/09 00:49:04;;;;;;;;;;;;;;;0.19;100.00;95179.34;4998372;28;19925;-48
2020/12/09 00:51:35;;;;;;;;;;;;;;;0.19;100.00;95169.78;5072976;28;19971;-46
2020/12/09 00:54:03;;;;;;;;;;;;;;;0.22;100.00;95173.94;5023016;28;19925;-52
2020/12/09 00:56:32;;;;;;;;;;;;;;;0.29;100.00;95187.25;5043564;28;19979;-48
2020/12/09 00:59:07;;;;;;;;;;;;;;;0.32;100.00;95194.81;5002058;28;21502;-47
2020/12/09 01:01:37;;;;;;;;;;;;;;;0.35;100.00;95194.59;5043115;28;19932;-49
2020/12/09 01:04:09;;;;;;;;;;;;;;;0.35;100.00;95194.59;5024775;28;19935;-49
2020/12/09 01:06:36;;;;;;;;;;;;;;;0.35;100.00;95199.78;5047080;28;19942;-48
2020/12/09 01:09:05;;;;;;;;;;;;;;;0.36;100.00;95206.59;5060401;28;19960;-54
2020/12/09 01:11:32;;;;;;;;;;;;;;;0.38;100.00;95205.56;5045125;28;19924;-50
2020/12/09 01:13:59;;;;;;;;;;;;;;;0.33;100.00;95201.66;5061591;28;19929;-50
2020/12/09 01:16:28;;;;;;;;;;;;;;;0.36;100.00;95199.66;5021807;28;20783;-49
2020/12/09 01:18:54;;;;;;;;;;;;;;;0.40;100.00;95203.66;5064530;28;19924;-49
2020/12/09 01:21:28;;;;;;;;;;;;;;;0.45;100.00;95185.19;5033311;28;20440;-56
2020/12/09 01:23:55;;;;;;;;;;;;;;;0.50;100.00;95192.63;5067047;28;19978;-47
2020/12/09 01:26:22;;;;;;;;;;;;;;;0.35;100.00;95197.19;5023509;28;19928;-48
2020/12/09 01:28:49;;;;;;;;;;;;;;;0.38;100.00;95202.13;5069702;28;20093;-49
2020/12/09 01:31:19;;;;;;;;;;;;;;;0.35;100.00;95199.78;5032399;28;19931;-51
2020/12/09 01:33:48;;;;;;;;;;;;;;;0.28;100.00;95207.19;5053044;28;19931;-52
2020/12/09 01:36:21;;;;;;;;;;;;;;;0.15;100.00;95211.59;5016582;28;19928;-52
2020/12/09 01:38:48;;;;;;;;;;;;;;;0.15;100.00;95214.19;5056002;28;19960;-51
2020/12/09 01:41:17;;;;;;;;;;;;;;;0.09;100.00;95220.66;5025047;28;19942;-48
2020/12/09 01:43:45;;;;;;;;;;;;;;;0.00;100.00;95223.91;5065492;28;19925;-51
2020/12/09 01:46:12;;;;;;;;;;;;;;;-0.08;100.00;95232.22;5027480;28;19924;-48
2020/12/09 01:48:39;;;;;;;;;;;;;;;-0.06;100.00;95234.72;5053536;28;19925;-50
2020/12/09 01:51:07;;;;;;;;;;;;;;;-0.12;100.00;95242.94;5011310;28;19925;-51
2020/12/09 01:53:33;;;;;;;;;;;;;;;-0.16;100.00;95249.28;5044695;28;19933;-47
2020/12/09 01:56:00;;;;;;;;;;;;;;;-0.21;100.00;95257.34;5008711;28;19982;-50
2020/12/09 01:58:27;;;;;;;;;;;;;;;-0.15;100.00;95266.47;5062127;28;19924;-46
2020/12/09 02:00:54;;;;;;;;;;;;;;;-0.10;100.00;95265.22;5065216;28;19963;-51
2020/12/09 02:03:20;;;;;;;;;;;;;;;-0.10;100.00;95259.19;5033884;28;20124;-46
2020/12/09 02:05:47;;;;;;;;;;;;;;;-0.07;100.00;95262.41;5066568;28;19928;-49
2020/12/09 02:08:14;;;;;;;;;;;;;;;-0.05;100.00;95267.47;5039870;28;20318;-47
2020/12/09 02:10:41;;;;;;;;;;;;;;;-0.03;100.00;95265.59;5043689;28;20441;-49
2020/12/09 02:13:08;;;;;;;;;;;;;;;-0.01;100.00;95263.72;5022443;28;19955;-51
2020/12/09 02:15:35;;;;;;;;;;;;;;;0.03;100.00;95259.13;5059587;28;19931;-50
2020/12/09 02:18:02;;;;;;;;;;;;;;;0.04;100.00;95266.81;5027146;28;20039;-48
2020/12/09 02:20:29;;;;;;;;;;;;;;;0.07;100.00;95253.63;5066441;28;19990;-48
2020/12/09 02:22:59;;;;;;;;;;;;;;;0.08;100.00;95244.09;5031700;28;19924;-50
2020/12/09 02:25:25;;;;;;;;;;;;;;;0.13;100.00;95250.59;5061513;28;19988;-54
2020/12/09 02:27:52;;;;;;;;;;;;;;;0.17;100.00;95248.59;5024063;28;19925;-51
2020/12/09 02:30:19;;;;;;;;;;;;;;;0.16;100.00;95247.78;5065175;28;19935;-47
2020/12/09 02:32:46;;;;;;;;;;;;;;;0.18;100.00;95247.69;5033687;28;19929;-48
2020/12/09 02:35:14;;;;;;;;;;;;;;;0.22;100.00;95251.69;5067183;28;19964;-49
2020/12/09 02:37:41;;;;;;;;;;;;;;;0.17;100.00;95244.25;5031030;28;19924;-52
2020/12/09 02:40:09;;;;;;;;;;;;;;;0.20;100.00;95259.56;5053242;28;19974;-52
2020/12/09 02:42:35;;;;;;;;;;;;;;;0.16;100.00;95262.50;5065002;28;21992;-49
2020/12/09 02:45:02;;;;;;;;;;;;;;;0.14;100.00;95262.63;5033601;28;20369;-51
2020/12/09 02:47:29;;;;;;;;;;;;;;;0.13;100.00;95258.34;5061363;28;19975;-49
2020/12/09 02:49:56;;;;;;;;;;;;;;;0.18;100.00;95256.28;5024422;28;20395;-50
2020/12/09 02:52:22;;;;;;;;;;;;;;;0.14;100.00;95254.03;5065137;28;19924;-50
2020/12/09 02:54:49;;;;;;;;;;;;;;;0.12;100.00;95254.13;5028149;28;19932;-50
2020/12/09 02:57:16;;;;;;;;;;;;;;;0.17;100.00;95258.97;5064392;28;19925;-51
2020/12/09 02:59:43;;;;;;;;;;;;;;;0.21;100.00;95248.28;5032546;28;20151;-48
2020/12/09 03:02:10;;;;;;;;;;;;;;;0.26;100.00;95236.75;5065633;28;19931;-50
2020/12/09 03:04:36;;;;;;;;;;;;;;;0.30;100.00;95244.16;5023334;28;20446;-52
2020/12/09 03:07:03;;;;;;;;;;;;;;;0.30;100.00;95246.75;5063254;28;20397;-48
2020/12/09 03:09:30;;;;;;;;;;;;;;;0.30;100.00;95238.97;5020643;28;19929;-48
2020/12/09 03:11:57;;;;;;;;;;;;;;;0.29;100.00;95245.13;5067348;28;20583;-52
2020/12/09 03:14:24;;;;;;;;;;;;;;;0.39;100.00;95250.47;5031477;28;19925;-47
2020/12/09 03:16:51;;;;;;;;;;;;;;;0.38;100.00;95246.19;5070166;28;19943;-49
2020/12/09 03:19:18;;;;;;;;;;;;;;;0.40;100.00;95239.16;5028558;28;19932;-49
2020/12/09 03:21:45;;;;;;;;;;;;;;;0.47;100.00;95245.53;5064252;28;19925;-52
2020/12/09 03:24:12;;;;;;;;;;;;;;;0.47;100.00;95242.94;5065595;28;19924;-53
2020/12/09 03:26:38;;;;;;;;;;;;;;;0.45;100.00;95240.47;5024578;28;19932;-47
2020/12/09 03:29:05;;;;;;;;;;;;;;;0.51;100.00;95239.16;5063690;28;20020;-53
2020/12/09 03:31:33;;;;;;;;;;;;;;;0.37;100.00;95242.78;5028882;28;20244;-50
2020/12/09 03:33:59;;;;;;;;;;;;;;;0.43;100.00;95234.56;5065219;28;20051;-49
2020/12/09 03:36:26;;;;;;;;;;;;;;;0.41;100.00;95233.88;5023455;28;19951;-49
2020/12/09 03:38:53;;;;;;;;;;;;;;;0.44;100.00;95228.41;5040342;28;19924;-46
2020/12/09 03:41:19;;;;;;;;;;;;;;;0.50;100.00;95221.16;5019804;28;19924;-51
2020/12/09 03:43:46;;;;;;;;;;;;;;;0.49;100.00;95230.69;5066904;28;19956;-50
2020/12/09 03:46:13;;;;;;;;;;;;;;;0.45;100.00;95229.28;5029225;28;19924;-48
2020/12/09 03:48:41;;;;;;;;;;;;;;;0.50;100.00;95241.91;5064330;28;19994;-53
2020/12/09 03:51:07;;;;;;;;;;;;;;;0.42;100.00;95237.28;5027347;28;19979;-50
2020/12/09 03:53:34;;;;;;;;;;;;;;;0.44;100.00;95240.56;5042934;28;19932;-50
2020/12/09 03:56:01;;;;;;;;;;;;;;;0.45;100.00;95244.84;5014712;28;19978;-52
2020/12/09 03:58:28;;;;;;;;;;;;;;;0.51;100.00;95246.13;5064552;28;19932;-48
2020/12/09 04:00:54;;;;;;;;;;;;;;;0.56;100.00;95244.84;5026332;28;19950;-47
2020/12/09 04:03:21;;;;;;;;;;;;;;;0.49;100.00;95243.66;5049624;28;20470;-51
2020/12/09 04:05:49;;;;;;;;;;;;;;;0.55;100.00;95250.16;5039436;28;19929;-54
2020/12/09 04:08:16;;;;;;;;;;;;;;;0.58;100.00;95248.16;5045191;28;19931;-50
2020/12/09 04:10:42;;;;;;;;;;;;;;;0.56;100.00;95251.81;5057976;28;19937;-48
2020/12/09 04:13:09;;;;;;;;;;;;;;;0.57;100.00;95251.69;5036555;28;19928;-50
2020/12/09 04:15:36;;;;;;;;;;;;;;;0.59;100.00;95239.44;5063875;28;20371;-51
2020/12/09 04:18:03;;;;;;;;;;;;;;;0.60;100.00;95248.88;5025839;28;20007;-50
2020/12/09 04:20:30;;;;;;;;;;;;;;;0.64;100.00;95254.66;5063479;28;19924;-47
2020/12/09 04:22:57;;;;;;;;;;;;;;;0.61;100.00;95258.31;5029255;28;20393;-47
2020/12/09 04:25:24;;;;;;;;;;;;;;;0.59;100.00;95269.75;5066098;28;20443;-48
2020/12/09 04:27:50;;;;;;;;;;;;;;;0.64;100.00;95265.84;5025062;28;20479;-48
2020/12/09 04:30:17;;;;;;;;;;;;;;;0.68;100.00;95266.47;5063574;28;20314;-50
2020/12/09 04:32:44;;;;;;;;;;;;;;;0.71;100.00;95271.41;5029580;28;20363;-46
2020/12/09 04:35:11;;;;;;;;;;;;;;;0.71;100.00;95274.00;5063563;28;19936;-48
2020/12/09 04:37:37;;;;;;;;;;;;;;;0.73;100.00;95279.94;5021305;28;19925;-53
2020/12/09 04:40:05;;;;;;;;;;;;;;;0.75;100.00;95269.44;5055206;28;20413;-48
2020/12/09 04:42:31;;;;;;;;;;;;;;;0.79;100.00;95273.44;5033244;28;19925;-51
2020/12/09 04:44:58;;;;;;;;;;;;;;;0.84;100.00;95279.13;5064134;28;19934;-47
2020/12/09 04:47:25;;;;;;;;;;;;;;;0.84;100.00;95281.72;5061000;28;20284;-46
2020/12/09 04:49:55;;;;;;;;;;;;;;;0.92;100.00;95298.34;5034305;28;19924;-49
2020/12/09 04:52:26;;;;;;;;;;;;;;;0.89;100.00;95303.78;5062790;28;20013;-48
2020/12/09 04:54:54;;;;;;;;;;;;;;;0.92;100.00;95318.31;5016584;28;20015;-48
2020/12/09 04:57:27;;;;;;;;;;;;;;;0.98;100.00;95323.03;5066070;28;19931;-51
2020/12/09 04:59:57;;;;;;;;;;;;;;;0.94;100.00;95327.63;5022341;28;20461;-47
2020/12/09 05:02:28;;;;;;;;;;;;;;;0.98;100.00;95332.59;5062102;28;20078;-45
2020/12/09 05:04:54;;;;;;;;;;;;;;;0.99;100.00;95335.06;5035606;28;20475;-48
2020/12/09 05:07:21;;;;;;;;;;;;;;;0.98;100.00;95337.78;5061385;28;20472;-52
2020/12/09 05:09:48;;;;;;;;;;;;;;;0.97;100.00;95349.94;5034233;28;19924;-48
2020/12/09 05:12:15;;;;;;;;;;;;;;;1.00;100.00;95354.06;5062724;28;19925;-47
2020/12/09 05:14:45;;;;;;;;;;;;;;;0.96;100.00;95345.69;5025342;28;19932;-49
2020/12/09 05:17:14;;;;;;;;;;;;;;;1.06;100.00;95348.41;5065923;28;19978;-52
2020/12/09 05:19:41;;;;;;;;;;;;;;;1.02;100.00;95358.19;5029917;28;19932;-49
2020/12/09 05:22:09;;;;;;;;;;;;;;;1.02;100.00;95354.78;5065050;28;20391;-49
2020/12/09 05:24:36;;;;;;;;;;;;;;;1.06;100.00;95359.63;5023223;28;19932;-52
2020/12/09 05:27:03;;;;;;;;;;;;;;;1.05;100.00;95363.16;5038396;28;19925;-48
2020/12/09 05:29:30;;;;;;;;;;;;;;;1.03;100.00;95375.44;4996108;28;21300;-48
2020/12/09 05:32:01;;;;;;;;;;;;;;;1.06;100.00;95364.81;5056211;28;19932;-49
2020/12/09 05:34:29;;;;;;;;;;;;;;;1.06;100.00;95362.22;5028821;28;19929;-46
2020/12/09 05:36:56;;;;;;;;;;;;;;;1.09;100.00;95366.38;5043093;28;19925;-47
2020/12/09 05:39:23;;;;;;;;;;;;;;;1.08;100.00;95355.16;5036322;28;20035;-50
2020/12/09 05:41:50;;;;;;;;;;;;;;;1.07;100.00;95361.31;5022697;28;20422;-52
2020/12/09 05:44:17;;;;;;;;;;;;;;;1.03;100.00;95354.66;5041648;28;19932;-47
2020/12/09 05:46:56;;;;;;;;;;;;;;;0.95;100.00;95352.63;5038874;28;20407;-53
2020/12/09 05:49:25;;;;;;;;;;;;;;;0.92;100.00;95355.47;5045248;28;19925;-52
2020/12/09 05:52:04;;;;;;;;;;;;;;;0.93;100.00;95361.50;5000720;28;19925;-51
2020/12/09 05:54:31;;;;;;;;;;;;;;;0.85;100.00;95356.84;5037486;28;19955;-46
2020/12/09 05:56:58;;;;;;;;;;;;;;;0.89;100.00;95367.81;5006961;28;19932;-49
2020/12/09 05:59:31;;;;;;;;;;;;;;;0.89;100.00;95360.88;5054664;28;19925;-54
2020/12/09 06:02:05;;;;;;;;;;;;;;;0.86;100.00;95358.53;5031709;28;19932;-48
2020/12/09 06:04:43;;;;;;;;;;;;;;;0.87;100.00;95360.16;5054811;28;20018;-45
2020/12/09 06:07:10;;;;;;;;;;;;;;;0.84;100.00;95349.19;5015414;28;20007;-47
2020/12/09 06:09:38;;;;;;;;;;;;;;;0.81;100.00;95355.41;5052654;28;20027;-54
2020/12/09 06:12:05;;;;;;;;;;;;;;;0.80;100.00;95352.97;5021986;28;21126;-52
2020/12/09 06:14:31;;;;;;;;;;;;;;;0.82;100.00;95345.88;5066764;28;20436;-53
2020/12/09 06:16:58;;;;;;;;;;;;;;;0.77;100.00;95350.59;5022654;28;19932;-49
2020/12/09 06:19:25;;;;;;;;;;;;;;;0.70;100.00;95348.44;5061027;28;19963;-48
2020/12/09 06:21:55;;;;;;;;;;;;;;;0.74;100.00;95343.03;5025981;28;19928;-47
2020/12/09 06:24:21;;;;;;;;;;;;;;;0.73;100.00;95352.56;5064805;28;19970;-54
2020/12/09 06:26:49;;;;;;;;;;;;;;;0.74;100.00;95353.41;5030681;28;19972;-50
2020/12/09 06:29:21;;;;;;;;;;;;;;;0.77;100.00;95348.00;5066799;28;19931;-46
2020/12/09 06:31:58;;;;;;;;;;;;;;;0.75;100.00;95349.84;5032292;28;20029;-49
2020/12/09 06:34:25;;;;;;;;;;;;;;;0.74;100.00;95358.59;5044549;28;19932;-48
2020/12/09 06:37:06;;;;;;;;;;;;;;;0.75;100.00;95358.47;5028887;28;19940;-56
2020/12/09 06:39:34;;;;;;;;;;;;;;;0.79;100.00;95354.72;5058099;28;19929;-46
2020/12/09 06:42:05;;;;;;;;;;;;;;;0.81;100.00;95359.78;5041955;28;19929;-47
2020/12/09 06:44:49;;;;;;;;;;;;;;;0.79;100.00;95362.50;5063450;28;19928;-48
2020/12/09 06:47:16;;;;;;;;;;;;;;;0.81;100.00;95364.97;5042754;28;19924;-47
2020/12/09 06:49:43;;;;;;;;;;;;;;;0.79;100.00;95361.66;5064394;28;19948;-49
2020/12/09 06:52:27;;;;;;;;;;;;;;;0.82;100.00;95367.44;5048247;28;20383;-49
2020/12/09 06:54:57;;;;;;;;;;;;;;;0.80;100.00;95371.13;5059370;28;19928;-47
2020/12/09 06:57:25;;;;;;;;;;;;;;;0.78;100.00;95370.38;5082379;28;19974;-48
2020/12/09 06:59:52;;;;;;;;;;;;;;;0.81;100.00;95372.75;5020749;28;19952;-52
2020/12/09 07:02:29;;;;;;;;;;;;;;;0.78;100.00;95365.19;5076510;28;20007;-53
2020/12/09 07:05:05;;;;;;;;;;;;;;;0.82;100.00;95371.81;5034528;28;19924;-46
2020/12/09 07:07:33;;;;;;;;;;;;;;;0.84;100.00;95378.56;5064509;28;20342;-51
2020/12/09 07:10:02;;;;;;;;;;;;;;;0.82;100.00;95369.22;5024522;28;19944;-48
2020/12/09 07:12:29;;;;;;;;;;;;;;;0.82;100.00;95374.41;5067607;28;19928;-47
2020/12/09 07:14:57;;;;;;;;;;;;;;;0.79;100.00;95378.09;5024788;28;19924;-51
2020/12/09 07:17:24;;;;;;;;;;;;;;;0.81;100.00;95386.56;5066634;28;19924;-48
2020/12/09 07:19:51;;;;;;;;;;;;;;;0.87;100.00;95378.34;5033529;28;19943;-49
2020/12/09 07:22:22;;;;;;;;;;;;;;;0.82;100.00;95384.78;5065391;28;19933;-53
2020/12/09 07:24:49;;;;;;;;;;;;;;;0.82;100.00;95392.56;5036129;28;19929;-52
2020/12/09 07:27:19;;;;;;;;;;;;;;;0.83;100.00;95394.25;5062224;28;19978;-49
2020/12/09 07:29:48;;;;;;;;;;;;;;;0.87;100.00;95401.69;5025786;28;19932;-46
2020/12/09 07:32:18;;;;;;;;;;;;;;;0.84;100.00;95401.09;5064873;28;19975;-46
2020/12/09 07:34:51;;;;;;;;;;;;;;;0.87;100.00;95395.69;5023826;28;19924;-50
2020/12/09 07:37:18;;;;;;;;;;;;;;;0.86;100.00;95400.03;5064927;28;19978;-48
2020/12/09 07:39:48;;;;;;;;;;;;;;;0.91;100.00;95410.09;5021325;28;19951;-48
2020/12/09 07:42:15;;;;;;;;;;;;;;;0.85;100.00;95406.16;5076519;28;19924;-51
2020/12/09 07:44:44;;;;;;;;;;;;;;;0.80;100.00;95395.28;5030616;28;19932;-47
2020/12/09 07:47:13;;;;;;;;;;;;;;;0.87;100.00;95408.66;5063455;28;19929;-49
2020/12/09 07:49:50;;;;;;;;;;;;;;;0.83;100.00;95399.44;5045350;28;20557;-51
2020/12/09 07:52:25;;;;;;;;;;;;;;;0.93;100.00;95411.63;5061022;28;20343;-48
2020/12/09 07:54:56;;;;;;;;;;;;;;;0.96;100.00;95405.38;5040840;28;20031;-52
2020/12/09 07:57:23;;;;;;;;;;;;;;;0.99;100.00;95412.13;5062099;28;19925;-56
2020/12/09 07:59:54;;;;;;;;;;;;;;;1.01;100.00;95412.84;5060764;28;19925;-54
2020/12/09 08:02:22;;;;;;;;;;;;;;;1.15;100.00;95416.06;5033034;28;19968;-53
2020/12/09 08:04:49;;;;;;;;;;;;;;;1.14;100.00;95406.63;5066153;28;20382;-53
2020/12/09 08:07:16;;;;;;;;;;;;;;;1.21;100.00;95413.97;5012291;28;19990;-53
2020/12/09 08:09:43;;;;;;;;;;;;;;;1.19;100.00;95412.31;5062969;28;20247;-51
2020/12/09 08:12:10;;;;;;;;;;;;;;;1.26;100.00;95415.28;5032625;28;19939;-54
2020/12/09 08:14:37;;;;;;;;;;;;;;;1.30;100.00;95418.47;5072675;28;19925;-54
2020/12/09 08:17:19;;;;;;;;;;;;;;;1.15;100.00;95425.63;5041872;28;19924;-50
2020/12/09 08:19:59;;;;;;;;;;;;;;;1.13;100.00;95430.09;5067538;28;19959;-53
2020/12/09 08:22:26;;;;;;;;;;;;;;;1.14;100.00;95431.78;5038330;28;20412;-55
2020/12/09 08:25:06;;;;;;;;;;;;;;;1.12;100.00;95428.44;5064477;28;19925;-54
2020/12/09 08:27:40;;;;;;;;;;;;;;;1.22;100.00;95437.22;5033966;28;20341;-54
2020/12/09 08:30:08;;;;;;;;;;;;;;;1.05;100.00;95437.63;5068566;28;20402;-52
2020/12/09 08:32:50;;;;;;;;;;;;;;;1.06;100.00;95437.50;5016393;28;19931;-51
2020/12/09 08:35:18;;;;;;;;;;;;;;;1.05;100.00;95432.44;5064160;28;19963;-55
2020/12/09 08:37:45;;;;;;;;;;;;;;;1.07;100.00;95434.00;5027595;28;19925;-51
2020/12/09 08:43:22;;;;;;;;;;;;;;;1.03;100.00;95431.72;5017918;28;20423;-52
2020/12/09 08:45:49;;;;;;;;;;;;;;;1.01;100.00;95436.19;5065242;28;19972;-55
2020/12/09 08:48:18;;;;;;;;;;;;;;;0.96;100.00;95444.31;5031735;28;19964;-50
2020/12/09 08:50:47;;;;;;;;;;;;;;;1.00;100.00;95444.91;5062088;28;19925;-54
2020/12/09 08:53:14;;;;;;;;;;;;;;;1.01;100.00;95444.81;5037666;28;19970;-53
2020/12/09 08:55:42;;;;;;;;;;;;;;;1.19;100.00;95451.25;5065073;28;20007;-49
2020/12/09 08:58:10;;;;;;;;;;;;;;;1.26;100.00;95449.03;5033354;28;20326;-53
2020/12/09 09:00:38;;;;;;;;;;;;;;;1.39;100.00;95448.97;5061367;28;19933;-49
2020/12/09 09:03:05;;;;;;;;;;;;;;;1.37;100.00;95443.03;5019739;28;19967;-49
2020/12/09 09:05:32;;;;;;;;;;;;;;;1.33;100.00;95442.44;5051495;28;19928;-48
2020/12/09 09:07:59;;;;;;;;;;;;;;;1.29;100.00;95454.00;5008999;28;21794;-51
2020/12/09 09:10:26;;;;;;;;;;;;;;;1.37;100.00;95461.22;5062106;28;19928;-47
2020/12/09 09:12:53;;;;;;;;;;;;;;;1.55;100.00;95456.44;5033987;28;19963;-54
2020/12/09 09:15:20;;;;;;;;;;;;;;;1.43;100.00;95450.38;5061521;28;19935;-50
2020/12/09 09:17:46;;;;;;;;;;;;;;;1.33;100.00;95454.59;5064068;28;19994;-50
2020/12/09 09:20:13;;;;;;;;;;;;;;;1.42;100.00;95448.75;5024859;28;19954;-51
2020/12/09 09:22:40;;;;;;;;;;;;;;;1.67;100.00;95456.34;5066178;28;19925;-56
2020/12/09 09:25:08;;;;;;;;;;;;;;;1.87;100.00;95454.03;5029067;28;19925;-53
2020/12/09 09:27:35;;;;;;;;;;;;;;;1.80;100.00;95461.47;5062351;28;20322;-49
2020/12/09 09:30:03;;;;;;;;;;;;;;;1.78;100.00;95454.72;5027362;28;19928;-50
2020/12/09 09:32:30;;;;;;;;;;;;;;;1.45;100.00;95463.28;5061440;28;19929;-56
2020/12/09 09:34:56;;;;;;;;;;;;;;;1.43;100.00;95463.38;5020196;28;20351;-52
2020/12/09 09:37:24;;;;;;;;;;;;;;;1.57;100.00;95470.97;5065881;28;20417;-49
2020/12/09 09:39:51;;;;;;;;;;;;;;;1.54;100.00;95472.97;5021994;28;19960;-51
2020/12/09 09:42:19;;;;;;;;;;;;;;;1.61;100.00;95472.38;5075177;28;20383;-53
2020/12/09 09:44:46;;;;;;;;;;;;;;;1.54;100.00;95467.78;5036882;28;19932;-50
2020/12/09 09:47:13;;;;;;;;;;;;;;;1.57;100.00;95467.53;5081324;28;20302;-51
2020/12/09 09:49:40;;;;;;;;;;;;;;;1.49;100.00;95460.31;5036598;28;19939;-52
2020/12/09 09:52:07;;;;;;;;;;;;;;;1.43;100.00;95445.19;5055697;28;19960;-50
2020/12/09 09:54:34;;;;;;;;;;;;;;;1.32;100.00;95450.34;5040907;28;20014;-51
2020/12/09 09:57:01;;;;;;;;;;;;;;;1.43;100.00;95446.00;5063116;28;20273;-48
2020/12/09 09:59:29;;;;;;;;;;;;;;;1.37;100.00;95448.22;5063889;28;19959;-48
2020/12/09 10:01:57;;;;;;;;;;;;;;;1.36;100.00;95444.00;5045089;28;19924;-53
2020/12/09 10:04:24;;;;;;;;;;;;;;;1.52;100.00;95441.91;5063487;28;19928;-50
2020/12/09 10:06:51;;;;;;;;;;;;;;;1.66;100.00;95436.50;5041273;28;20452;-50
2020/12/09 10:09:18;;;;;;;;;;;;;;;1.74;100.00;95438.53;5063054;28;19925;-51
2020/12/09 10:11:46;;;;;;;;;;;;;;;1.66;100.00;95439.13;5032927;28;19925;-50
2020/12/09 10:14:13;;;;;;;;;;;;;;;1.70;100.00;95437.09;5071038;28;20397;-51
2020/12/09 10:16:43;;;;;;;;;;;;;;;1.91;100.00;95437.25;5031478;28;20291;-56
2020/12/09 10:19:10;;;;;;;;;;;;;;;1.93;100.00;95437.13;5066261;28;19925;-49
2020/12/09 10:21:37;;;;;;;;;;;;;;;1.88;100.00;95443.50;5043990;28;19931;-53
2020/12/09 10:24:04;;;;;;;;;;;;;;;1.78;100.00;95446.91;5065654;28;20465;-49
2020/12/09 10:26:31;;;;;;;;;;;;;;;1.58;100.00;95444.06;5034728;28;19963;-49
2020/12/09 10:29:00;;;;;;;;;;;;;;;1.56;100.00;95442.53;5068808;28;20317;-54
2020/12/09 10:31:34;;;;;;;;;;;;;;;1.65;100.00;95445.25;5039552;28;19925;-49
2020/12/09 10:34:02;;;;;;;;;;;;;;;1.52;100.00;95448.88;5069869;28;19924;-52
2020/12/09 10:36:29;;;;;;;;;;;;;;;1.58;100.00;95446.66;5028458;28;19986;-49
2020/12/09 10:38:55;;;;;;;;;;;;;;;1.51;100.00;95436.81;5045242;28;19947;-56
2020/12/09 10:41:22;;;;;;;;;;;;;;;1.54;100.00;95441.78;5023707;28;19968;-51
2020/12/09 10:43:50;;;;;;;;;;;;;;;1.66;100.00;95435.69;5075380;28;19929;-50
2020/12/09 10:46:16;;;;;;;;;;;;;;;1.66;100.00;95428.72;5065876;28;19930;-50
2020/12/09 10:48:43;;;;;;;;;;;;;;;1.65;100.00;95434.00;5020112;28;19928;-49
2020/12/09 10:51:11;;;;;;;;;;;;;;;1.73;100.00;95430.84;5067286;28;19986;-48
2020/12/09 10:53:38;;;;;;;;;;;;;;;2.01;100.00;95422.59;5027848;28;19986;-49
2020/12/09 10:56:04;;;;;;;;;;;;;;;2.16;100.00;95419.75;5069980;28;20028;-49
2020/12/09 10:58:31;;;;;;;;;;;;;;;1.90;100.00;95418.22;5039474;28;19932;-52
2020/12/09 11:00:58;;;;;;;;;;;;;;;2.09;100.00;95427.22;5065741;28;19924;-52
2020/12/09 11:03:25;;;;;;;;;;;;;;;1.98;100.00;95416.81;5028425;28;19975;-49
2020/12/09 11:05:52;;;;;;;;;;;;;;;1.98;100.00;95409.84;5056162;28;19937;-54
2020/12/09 11:08:20;;;;;;;;;;;;;;;1.94;100.00;95413.63;5011949;28;19928;-49
2020/12/09 11:10:48;;;;;;;;;;;;;;;1.98;100.00;95411.63;5057503;28;19921;-51
2020/12/09 11:13:15;;;;;;;;;;;;;;;1.93;100.00;95404.19;5046402;28;19921;-49
2020/12/09 11:15:42;;;;;;;;;;;;;;;2.04;100.00;95398.16;5058054;28;19921;-49
2020/12/09 11:18:27;;;;;;;;;;;;;;;2.30;100.00;95394.31;5032830;28;19927;-49
2020/12/09 11:20:54;;;;;;;;;;;;;;;2.08;100.00;95400.38;5057860;28;19921;-49
2020/12/09 11:23:22;;;;;;;;;;;;;;;2.04;100.00;95393.78;5031631;28;19940;-53
2020/12/09 11:25:49;;;;;;;;;;;;;;;2.12;100.00;95400.97;5065606;28;19920;-51
2020/12/09 11:28:16;;;;;;;;;;;;;;;1.96;100.00;95410.88;5038688;28;19974;-52
2020/12/09 11:30:54;;;;;;;;;;;;;;;1.79;100.00;95402.63;5056122;28;19948;-51
2020/12/09 11:33:22;;;;;;;;;;;;;;;1.95;100.00;95397.06;5016908;28;19925;-52
2020/12/09 11:35:48;;;;;;;;;;;;;;;1.68;100.00;95405.19;5056061;28;19927;-47
2020/12/09 11:38:15;;;;;;;;;;;;;;;1.78;100.00;95398.34;5062750;28;19927;-48
2020/12/09 11:40:43;;;;;;;;;;;;;;;1.64;100.00;95409.81;5026165;28;20569;-51
2020/12/09 11:43:10;;;;;;;;;;;;;;;1.59;100.00;95409.34;5047332;28;20392;-52
2020/12/09 11:45:37;;;;;;;;;;;;;;;1.55;100.00;95410.53;5021310;28;19920;-49
2020/12/09 11:48:04;;;;;;;;;;;;;;;1.58;100.00;95414.63;5064336;28;19964;-54
2020/12/09 11:50:31;;;;;;;;;;;;;;;1.54;100.00;95416.63;5011468;28;19925;-50
2020/12/09 11:52:57;;;;;;;;;;;;;;;1.49;100.00;95415.34;5086406;28;19921;-50
2020/12/09 11:55:24;;;;;;;;;;;;;;;1.42;100.00;95412.38;5048921;28;19933;-52
2020/12/09 11:57:52;;;;;;;;;;;;;;;1.39;100.00;95413.44;5052071;28;19968;-51
2020/12/09 12:00:19;;;;;;;;;;;;;;;1.34;100.00;95414.69;5023092;28;20340;-52
2020/12/09 12:02:45;;;;;;;;;;;;;;;1.43;100.00;95416.63;5064537;28;20295;-50
2020/12/09 12:05:13;;;;;;;;;;;;;;;1.42;100.00;95417.56;5040501;28;20268;-51
2020/12/09 12:07:40;;;;;;;;;;;;;;;1.50;100.00;95425.59;5047510;28;20368;-56
2020/12/09 12:10:07;;;;;;;;;;;;;;;1.44;100.00;95426.06;5028192;28;19932;-50
2020/12/09 12:12:34;;;;;;;;;;;;;;;1.43;100.00;95414.84;5053408;28;20386;-56
2020/12/09 12:15:02;;;;;;;;;;;;;;;1.48;100.00;95414.53;5013869;28;19921;-53
2020/12/09 12:17:29;;;;;;;;;;;;;;;1.44;100.00;95420.88;5048019;28;19963;-50
2020/12/09 12:19:56;;;;;;;;;;;;;;;1.55;100.00;95410.53;5065371;28;19920;-49
2020/12/09 12:22:24;;;;;;;;;;;;;;;1.49;100.00;95408.38;5036784;28;19965;-51
2020/12/09 12:24:51;;;;;;;;;;;;;;;1.59;100.00;95414.53;5061102;28;19921;-53
2020/12/09 12:27:17;;;;;;;;;;;;;;;1.48;100.00;95401.53;5036344;28;19921;-49
2020/12/09 12:29:45;;;;;;;;;;;;;;;1.66;100.00;95412.31;5062742;28;20389;-53
2020/12/09 12:32:12;;;;;;;;;;;;;;;1.64;100.00;95406.38;5033330;28;19943;-49
2020/12/09 12:34:39;;;;;;;;;;;;;;;1.51;100.00;95403.88;5060001;28;20157;-53
2020/12/09 12:37:06;;;;;;;;;;;;;;;1.73;100.00;95410.06;5029966;28;19966;-53
2020/12/09 12:39:33;;;;;;;;;;;;;;;1.72;100.00;95409.25;5052873;28;20007;-54
2020/12/09 12:42:00;;;;;;;;;;;;;;;1.69;100.00;95406.88;5030928;28;19932;-53
2020/12/09 12:44:27;;;;;;;;;;;;;;;1.78;100.00;95408.75;5064421;28;20259;-54
2020/12/09 12:46:54;;;;;;;;;;;;;;;1.73;100.00;95413.50;5037495;28;20011;-49
2020/12/09 12:49:22;;;;;;;;;;;;;;;1.82;100.00;95409.34;5059277;28;19928;-53
2020/12/09 12:51:51;;;;;;;;;;;;;;;1.92;100.00;95406.88;5030177;28;19967;-55
2020/12/09 12:54:18;;;;;;;;;;;;;;;1.77;100.00;95409.72;5059537;28;19989;-50